Time,TemperatureF,DewpointF,PressureIn,WindDirection,WindDirectionDegrees,WindSpeedMPH,WindSpeedGustMPH,Humidity,HourlyPrecipIn,Conditions,Clouds,dailyrainin,SoftwareType,DateUTC
2013-11-11 00:42:00,27.0,18.0,29.90,West,272,0.0,0.0,67,0.00,,,0.00,,2013-11-11 07:42:00,
2013-11-11 08:43:00,27.0,19.0,30.15,SE,140,1.0,3.0,70,0.00,,,0.00,,2013-11-11 15:43:00,
2013-11-11 08:53:00,28.0,18.0,30.14,ESE,117,2.0,3.0,67,0.00,,,0.00,,2013-11-11 15:53:00,
2013-11-11 09:23:00,32.0,21.0,30.13,ESE,117,0.0,2.0,63,0.00,,,0.00,,2013-11-11 16:23:00,
2013-11-11 09:53:00,37.0,23.0,30.10,ESE,117,0.0,2.0,56,0.00,,,0.00,,2013-11-11 16:53:00,
2013-11-11 10:22:00,42.0,22.0,30.07,ESE,116,0.0,1.0,44,0.00,,,0.00,,2013-11-11 17:22:00,
2013-11-11 10:52:00,47.0,21.0,30.03,ESE,114,1.0,2.0,36,0.00,,,0.00,,2013-11-11 17:52:00,
2013-11-11 11:23:00,53.0,16.0,30.00,SE,124,2.0,6.0,23,0.00,,,0.00,,2013-11-11 18:23:00,
2013-11-11 11:52:00,55.0,18.0,29.98,ESE,107,2.0,3.0,23,0.00,,,0.00,,2013-11-11 18:52:00,
2013-11-11 12:21:00,58.0,18.0,29.96,East,99,2.0,3.0,21,0.00,,,0.00,,2013-11-11 19:21:00,
2013-11-11 12:53:00,61.0,14.0,29.93,SW,222,4.0,7.0,16,0.00,,,0.00,,2013-11-11 19:53:00,
2013-11-11 13:21:00,62.0,14.0,29.92,NW,319,1.0,7.0,15,0.00,,,0.00,,2013-11-11 20:21:00,
2013-11-11 13:52:00,62.0,12.0,29.92,West,268,5.0,10.0,14,0.00,,,0.00,,2013-11-11 20:52:00,
2013-11-11 14:21:00,62.0,12.0,29.92,NW,305,3.0,10.0,14,0.00,,,0.00,,2013-11-11 21:21:00,
2013-11-11 14:43:00,62.0,12.0,29.92,West,280,4.0,10.0,14,0.00,,,0.00,,2013-11-11 21:43:00,
2013-11-11 14:55:00,61.0,13.0,29.93,NW,305,3.0,7.0,15,0.00,,,0.00,,2013-11-11 21:55:00,
2013-11-11 15:23:00,61.0,13.0,29.94,West,276,6.0,9.0,15,0.00,,,0.00,,2013-11-11 22:23:00,
2013-11-11 15:53:00,60.0,12.0,29.94,WSW,254,5.0,9.0,15,0.00,,,0.00,,2013-11-11 22:53:00,
2013-11-11 16:22:00,59.0,13.0,29.97,WSW,240,5.0,12.0,16,0.00,,,0.00,,2013-11-11 23:22:00,
2013-11-11 16:42:00,58.0,13.0,29.98,WSW,239,5.0,8.0,17,0.00,,,0.00,,2013-11-11 23:42:00,
2013-11-11 16:53:00,57.0,13.0,29.98,West,261,5.0,8.0,17,0.00,,,0.00,,2013-11-11 23:53:00,
2013-11-11 17:22:00,54.0,16.0,30.01,WSW,250,1.0,3.0,22,0.00,,,0.00,,2013-11-12 00:22:00,
2013-11-11 17:52:00,48.0,16.0,30.07,West,265,2.0,3.0,27,0.00,,,0.00,,2013-11-12 00:52:00,
2013-11-11 18:21:00,45.0,17.0,30.10,West,270,0.0,1.0,32,0.00,,,0.00,,2013-11-12 01:21:00,
2013-11-11 18:52:00,43.0,17.0,30.13,West,270,0.0,0.0,34,0.00,,,0.00,,2013-11-12 01:52:00,
2013-11-11 19:21:00,40.0,18.0,30.14,West,270,0.0,0.0,41,0.00,,,0.00,,2013-11-12 02:21:00,
2013-11-11 20:54:00,35.0,18.0,30.14,West,270,0.0,0.0,50,0.00,,,0.00,,2013-11-12 03:54:00,
2013-11-11 21:13:00,34.0,18.0,30.14,West,270,0.0,0.0,52,0.00,,,0.00,,2013-11-12 04:13:00,
2013-11-11 22:23:00,32.0,18.0,30.04,West,270,0.0,0.0,56,0.00,,,0.00,,2013-11-12 05:23:00,